createdAt,value
2018-02-13T21:44:50.466Z,-3.90
2018-02-13T21:47:17.018Z,-3.90
2018-02-13T21:49:43.631Z,-3.90
2018-02-13T21:52:10.679Z,-3.90
2018-02-13T21:54:37.625Z,-4.00
2018-02-13T21:57:04.178Z,-4.00
2018-02-13T21:59:30.762Z,-4.00
2018-02-13T22:01:57.320Z,-4.00
2018-02-13T22:04:24.331Z,-4.00
2018-02-13T22:06:51.005Z,-4.00
2018-02-13T22:09:17.943Z,-4.10
2018-02-13T22:11:45.092Z,-4.10
2018-02-13T22:14:11.711Z,-4.10
2018-02-13T22:16:38.286Z,-4.00
2018-02-13T22:19:04.840Z,-4.10
2018-02-13T22:21:31.423Z,-4.10
2018-02-13T22:23:58.001Z,-4.10
2018-02-13T22:26:24.535Z,-4.10
2018-02-13T22:28:51.185Z,-4.10
2018-02-13T22:31:17.757Z,-4.10
2018-02-13T22:33:44.305Z,-4.00
2018-02-13T22:36:10.873Z,-4.00
2018-02-13T22:38:37.481Z,-4.10
2018-02-13T22:41:04.073Z,-4.10
2018-02-13T22:43:30.693Z,-4.10
2018-02-13T22:45:57.266Z,-4.20
2018-02-13T22:48:23.801Z,-4.20
2018-02-13T22:50:50.361Z,-4.20
2018-02-13T22:53:16.933Z,-4.20
2018-02-13T22:55:43.473Z,-4.20
2018-02-13T22:58:10.054Z,-4.20
2018-02-13T23:00:36.641Z,-4.30
2018-02-13T23:03:03.178Z,-4.20
2018-02-13T23:05:29.742Z,-4.30
2018-02-13T23:07:56.313Z,-4.40
2018-02-13T23:10:23.213Z,-4.40
2018-02-13T23:12:49.793Z,-4.40
2018-02-13T23:15:16.360Z,-4.40
2018-02-13T23:17:43.253Z,-4.40
2018-02-13T23:20:09.840Z,-4.40
2018-02-13T23:22:36.410Z,-4.40
2018-02-13T23:25:03.324Z,-4.40
2018-02-13T23:27:29.893Z,-4.40
2018-02-13T23:29:56.460Z,-4.50
2018-02-13T23:32:23.371Z,-4.40
2018-02-13T23:34:49.929Z,-4.40
2018-02-13T23:37:16.497Z,-4.40
2018-02-13T23:39:43.446Z,-4.50
2018-02-13T23:42:10.141Z,-4.50
2018-02-13T23:44:36.701Z,-4.50
2018-02-13T23:47:03.241Z,-4.50
2018-02-13T23:49:29.805Z,-4.50
2018-02-13T23:51:56.417Z,-4.50
2018-02-13T23:54:23.319Z,-4.50
2018-02-13T23:56:49.889Z,-4.50
2018-02-13T23:59:16.449Z,-4.60
